createdAt,value
2022-11-06T00:00:35.871Z,3.10
2022-11-06T00:03:05.053Z,2.97
2022-11-06T00:05:51.214Z,2.77
2022-11-06T00:08:29.017Z,3.20
2022-11-06T00:10:57.306Z,2.83
2022-11-06T00:13:26.961Z,3.07
2022-11-06T00:15:55.081Z,2.60
2022-11-06T00:18:26.368Z,3.20
2022-11-06T00:20:54.508Z,2.67
2022-11-06T00:23:22.761Z,2.90
2022-11-06T00:25:53.092Z,3.63
2022-11-06T00:28:21.332Z,2.93
2022-11-06T00:30:50.818Z,3.63
2022-11-06T00:33:18.965Z,3.10
2022-11-06T00:35:47.169Z,2.97
2022-11-06T00:38:15.654Z,3.90
2022-11-06T00:40:43.924Z,2.90
2022-11-06T00:43:12.053Z,15.87
2022-11-06T00:45:40.205Z,3.30
2022-11-06T00:48:10.005Z,2.80
2022-11-06T00:50:38.352Z,3.10
2022-11-06T00:53:06.620Z,3.13
2022-11-06T00:55:35.079Z,3.07
2022-11-06T00:58:03.334Z,2.90
2022-11-06T01:00:32.449Z,3.00
2022-11-06T01:03:00.675Z,2.80
2022-11-06T01:05:30.368Z,3.07
2022-11-06T01:07:58.512Z,2.40
2022-11-06T01:10:26.683Z,2.50
2022-11-06T01:12:54.870Z,2.30
2022-11-06T01:15:22.976Z,3.03
2022-11-06T01:17:51.092Z,2.40
2022-11-06T01:20:19.332Z,2.97
2022-11-06T01:22:49.061Z,2.70
2022-11-06T01:25:17.270Z,2.60
2022-11-06T01:27:45.510Z,2.73
2022-11-06T01:30:14.509Z,2.67
2022-11-06T01:32:42.767Z,2.53
2022-11-06T01:35:11.005Z,2.60
2022-11-06T01:37:39.159Z,3.20
2022-11-06T01:40:09.558Z,4.17
2022-11-06T01:42:37.723Z,2.80
2022-11-06T01:45:24.616Z,3.13
2022-11-06T01:47:53.152Z,2.83
2022-11-06T01:50:21.650Z,3.13
2022-11-06T01:52:51.911Z,5.07
2022-11-06T01:55:26.401Z,2.60
2022-11-06T01:57:56.719Z,2.60
2022-11-06T02:00:26.240Z,2.77
2022-11-06T02:02:54.567Z,2.67
2022-11-06T02:05:22.834Z,3.17
2022-11-06T02:07:51.237Z,2.70
2022-11-06T02:10:19.375Z,2.40
2022-11-06T02:12:55.829Z,5.67
2022-11-06T02:15:35.539Z,3.50
2022-11-06T02:18:25.586Z,2.60
2022-11-06T02:21:17.753Z,3.40
2022-11-06T02:24:15.301Z,3.00
2022-11-06T02:27:10.348Z,3.03
2022-11-06T02:29:46.790Z,3.20
2022-11-06T02:32:20.002Z,2.60
2022-11-06T02:34:51.133Z,2.67
2022-11-06T02:37:22.659Z,2.77
2022-11-06T02:39:53.674Z,2.70
2022-11-06T02:42:25.171Z,3.00
2022-11-06T02:44:56.722Z,2.80
2022-11-06T02:47:29.834Z,3.20
2022-11-06T02:50:02.592Z,2.80
2022-11-06T02:52:35.330Z,2.73
2022-11-06T02:55:09.799Z,3.13
2022-11-06T02:57:42.053Z,3.67
2022-11-06T03:00:12.984Z,2.70
2022-11-06T03:02:48.289Z,2.50
2022-11-06T03:05:20.932Z,2.80
2022-11-06T03:07:54.681Z,2.97
2022-11-06T03:10:27.739Z,2.57
2022-11-06T03:12:59.869Z,2.30
2022-11-06T03:15:34.706Z,2.80
2022-11-06T03:18:11.448Z,3.30
2022-11-06T03:20:44.802Z,3.00
2022-11-06T03:23:19.571Z,4.50
2022-11-06T03:25:52.951Z,2.63
2022-11-06T03:28:29.501Z,2.57
2022-11-06T03:31:03.381Z,3.10
2022-11-06T03:33:37.347Z,3.03
2022-11-06T03:36:11.905Z,2.33
2022-11-06T03:38:42.729Z,2.63
2022-11-06T03:41:17.628Z,2.23
2022-11-06T03:43:50.820Z,2.80
2022-11-06T03:46:25.012Z,3.30
2022-11-06T03:48:56.855Z,3.03
2022-11-06T03:51:31.358Z,2.63
2022-11-06T03:54:04.093Z,2.80
2022-11-06T03:56:38.752Z,2.97
2022-11-06T03:59:10.414Z,3.13
2022-11-06T04:01:44.399Z,2.47
2022-11-06T04:04:17.389Z,2.70
2022-11-06T04:06:49.693Z,2.70
2022-11-06T04:09:36.940Z,2.30
2022-11-06T04:12:24.485Z,2.67
2022-11-06T04:14:57.115Z,2.50
2022-11-06T04:17:29.587Z,2.30
2022-11-06T04:20:02.185Z,2.63
2022-11-06T04:22:46.847Z,3.40
2022-11-06T04:25:48.283Z,2.77
2022-11-06T04:28:30.642Z,2.30
2022-11-06T04:31:07.410Z,4.70
2022-11-06T04:33:45.377Z,3.07
2022-11-06T04:36:23.559Z,3.20
2022-11-06T04:39:02.290Z,3.00
2022-11-06T04:41:38.444Z,2.77
2022-11-06T04:44:14.972Z,2.20
2022-11-06T04:46:48.400Z,2.67
2022-11-06T04:49:17.682Z,3.33
2022-11-06T04:51:47.397Z,2.47
2022-11-06T04:54:16.944Z,2.60
2022-11-06T04:56:46.505Z,2.10
2022-11-06T04:59:17.653Z,2.30
2022-11-06T05:01:47.540Z,2.60
2022-11-06T05:04:15.891Z,2.50
2022-11-06T05:06:44.254Z,2.27
2022-11-06T05:09:12.390Z,2.73
2022-11-06T05:11:40.510Z,2.20
2022-11-06T05:14:08.639Z,2.63
2022-11-06T05:16:36.915Z,2.63
2022-11-06T05:19:06.564Z,2.70
2022-11-06T05:21:52.264Z,2.77
2022-11-06T05:24:20.427Z,2.60
2022-11-06T05:26:48.599Z,2.97
2022-11-06T05:29:16.909Z,2.63
2022-11-06T05:31:45.006Z,2.00
2022-11-06T05:34:14.561Z,2.17
2022-11-06T05:36:42.702Z,2.30
2022-11-06T05:39:11.305Z,2.30
2022-11-06T05:41:39.423Z,2.93
2022-11-06T05:44:07.627Z,2.30
2022-11-06T05:46:48.232Z,2.40
2022-11-06T05:49:18.877Z,2.30
2022-11-06T05:51:47.376Z,2.43
2022-11-06T05:54:16.291Z,2.20
2022-11-06T05:56:44.375Z,2.43
2022-11-06T05:59:13.140Z,2.30
2022-11-06T06:01:41.436Z,2.40
2022-11-06T06:04:09.763Z,2.50
2022-11-06T06:06:40.300Z,2.37
2022-11-06T06:09:08.584Z,2.80
2022-11-06T06:11:36.829Z,2.60
2022-11-06T06:14:05.026Z,2.33
2022-11-06T06:16:33.208Z,2.20
2022-11-06T06:19:01.411Z,2.43
2022-11-06T06:21:29.490Z,2.30
2022-11-06T06:23:59.026Z,2.20
2022-11-06T06:26:27.178Z,1.80
2022-11-06T06:28:55.313Z,3.10
2022-11-06T06:31:23.637Z,2.40
2022-11-06T06:33:51.812Z,2.63
2022-11-06T06:36:20.092Z,2.30
2022-11-06T06:38:48.292Z,2.00
2022-11-06T06:41:17.841Z,3.27
2022-11-06T06:43:49.496Z,2.30
2022-11-06T06:46:18.208Z,2.13
2022-11-06T06:48:46.444Z,2.60
2022-11-06T06:51:16.503Z,2.90
2022-11-06T06:53:48.374Z,2.57
2022-11-06T06:56:17.938Z,2.60
2022-11-06T06:58:46.053Z,2.30
2022-11-06T07:01:14.291Z,2.63
2022-11-06T07:03:42.503Z,2.00
2022-11-06T07:06:10.751Z,2.23
2022-11-06T07:08:39.217Z,2.23
2022-11-06T07:11:08.756Z,2.27
2022-11-06T07:13:38.735Z,3.40
2022-11-06T07:16:08.471Z,3.17
2022-11-06T07:18:37.900Z,9.00
2022-11-06T07:21:09.566Z,7.53
2022-11-06T07:23:38.287Z,6.00
2022-11-06T07:26:07.086Z,4.73
2022-11-06T07:28:36.940Z,3.73
2022-11-06T07:31:07.572Z,3.50
2022-11-06T07:33:36.710Z,4.43
2022-11-06T07:36:05.996Z,4.80
2022-11-06T07:38:35.775Z,3.13
2022-11-06T07:41:05.260Z,3.03
2022-11-06T07:43:33.976Z,3.00
2022-11-06T07:46:06.049Z,4.60
2022-11-06T07:48:34.617Z,3.70
2022-11-06T07:51:04.496Z,3.60
2022-11-06T07:53:33.229Z,6.93
2022-11-06T07:56:04.472Z,4.50
2022-11-06T07:58:34.429Z,4.07
2022-11-06T08:01:04.509Z,4.70
2022-11-06T08:03:32.765Z,5.30
2022-11-06T08:06:04.164Z,11.40
2022-11-06T08:08:32.501Z,7.07
2022-11-06T08:11:03.504Z,9.83
2022-11-06T08:13:33.908Z,4.27
2022-11-06T08:16:06.392Z,5.07
2022-11-06T08:18:34.889Z,4.30
2022-11-06T08:21:03.571Z,5.80
2022-11-06T08:23:32.373Z,4.60
2022-11-06T08:26:02.769Z,4.50
2022-11-06T08:28:31.100Z,4.93
2022-11-06T08:30:59.318Z,5.60
2022-11-06T08:33:28.792Z,5.53
2022-11-06T08:35:56.893Z,4.63
2022-11-06T08:38:25.040Z,4.77
2022-11-06T08:40:54.039Z,5.70
2022-11-06T08:43:57.642Z,6.50
2022-11-06T08:46:30.571Z,6.40
2022-11-06T08:49:00.223Z,7.37
2022-11-06T08:51:28.427Z,8.80
2022-11-06T08:53:57.841Z,9.33
2022-11-06T08:56:26.004Z,9.67
2022-11-06T08:58:55.696Z,8.77
2022-11-06T09:01:25.074Z,11.70
2022-11-06T09:03:53.388Z,9.40
2022-11-06T09:06:22.919Z,7.90
2022-11-06T09:08:51.042Z,7.27
2022-11-06T09:11:19.133Z,6.13
2022-11-06T09:13:47.242Z,6.40
2022-11-06T09:16:16.208Z,7.00
2022-11-06T09:18:44.806Z,5.60
2022-11-06T09:21:12.955Z,6.60
2022-11-06T09:23:42.509Z,5.63
2022-11-06T09:26:10.645Z,6.10
2022-11-06T09:28:38.839Z,5.80
2022-11-06T09:31:07.323Z,5.60
2022-11-06T09:33:36.961Z,4.60
2022-11-06T09:36:05.735Z,5.47
2022-11-06T09:38:34.095Z,4.80
2022-11-06T09:41:04.429Z,7.40
2022-11-06T09:44:05.169Z,5.70
2022-11-06T09:46:39.948Z,6.60
2022-11-06T09:49:17.834Z,4.90
2022-11-06T09:51:52.494Z,4.53
2022-11-06T09:54:26.159Z,5.27
2022-11-06T09:57:02.272Z,4.10
2022-11-06T09:59:38.175Z,4.17
2022-11-06T10:02:26.016Z,4.07
2022-11-06T10:05:01.597Z,18.07
2022-11-06T10:07:31.696Z,6.00
2022-11-06T10:10:01.078Z,3.87
2022-11-06T10:12:41.436Z,4.23
2022-11-06T10:15:22.063Z,3.77
2022-11-06T10:17:59.610Z,6.20
2022-11-06T10:20:33.107Z,3.63
2022-11-06T10:23:06.822Z,5.33
2022-11-06T10:26:02.542Z,4.37
2022-11-06T10:28:53.557Z,4.60
2022-11-06T10:31:30.368Z,3.03
2022-11-06T10:34:03.639Z,3.50
2022-11-06T10:36:36.648Z,3.30
2022-11-06T10:39:06.711Z,3.00
2022-11-06T10:41:38.345Z,3.43
2022-11-06T10:44:16.477Z,12.23
2022-11-06T10:46:49.784Z,16.03
2022-11-06T10:49:31.754Z,3.57
2022-11-06T10:52:17.380Z,6.80
2022-11-06T10:55:00.931Z,5.43
2022-11-06T10:57:42.010Z,5.70
2022-11-06T11:00:14.071Z,13.03
2022-11-06T11:02:47.518Z,5.17
2022-11-06T11:05:21.719Z,5.13
2022-11-06T11:08:00.651Z,6.93
2022-11-06T11:10:32.276Z,4.67
2022-11-06T11:13:07.890Z,5.70
2022-11-06T11:15:45.977Z,4.23
2022-11-06T11:18:18.835Z,7.63
2022-11-06T11:20:48.143Z,3.87
2022-11-06T11:23:19.622Z,5.73
2022-11-06T11:25:50.073Z,4.30
2022-11-06T11:28:29.338Z,4.90
2022-11-06T11:31:06.032Z,4.53
2022-11-06T11:33:34.963Z,5.03
2022-11-06T11:36:05.555Z,6.17
2022-11-06T11:38:36.211Z,4.70
2022-11-06T11:41:09.451Z,4.87
2022-11-06T11:43:37.794Z,4.90
2022-11-06T11:46:20.772Z,5.67
2022-11-06T11:48:51.340Z,4.80
2022-11-06T11:51:31.598Z,4.90
2022-11-06T11:54:06.826Z,5.97
2022-11-06T11:57:03.031Z,5.97
2022-11-06T11:59:27.284Z,6.70
2022-11-06T12:01:59.316Z,5.53
2022-11-06T12:04:30.956Z,5.00
2022-11-06T12:07:04.614Z,6.33
2022-11-06T12:09:35.950Z,5.60
2022-11-06T12:12:04.060Z,5.50
2022-11-06T12:14:34.837Z,5.70
2022-11-06T12:17:16.569Z,19.03
2022-11-06T12:19:50.153Z,8.37
2022-11-06T12:22:24.135Z,6.23
2022-11-06T12:24:56.236Z,5.10
2022-11-06T12:27:28.944Z,6.37
2022-11-06T12:30:06.940Z,6.60
2022-11-06T12:33:00.304Z,6.47
2022-11-06T12:35:30.494Z,6.80
2022-11-06T12:38:11.349Z,5.80
2022-11-06T12:40:41.118Z,7.23
2022-11-06T12:43:23.404Z,12.57
2022-11-06T12:46:11.692Z,8.17
2022-11-06T12:49:04.753Z,7.87
2022-11-06T12:51:40.720Z,7.33
2022-11-06T12:54:22.831Z,6.83
2022-11-06T12:56:58.887Z,6.70
2022-11-06T12:59:41.208Z,8.87
2022-11-06T13:02:25.893Z,6.60
2022-11-06T13:05:03.088Z,7.67
2022-11-06T13:07:57.900Z,8.33
2022-11-06T13:10:38.102Z,7.50
2022-11-06T13:13:24.055Z,6.97
2022-11-06T13:15:58.356Z,7.20
2022-11-06T13:18:30.489Z,7.63
2022-11-06T13:21:04.234Z,7.10
2022-11-06T13:23:39.119Z,6.83
2022-11-06T13:26:14.454Z,7.00
2022-11-06T13:28:45.985Z,7.93
2022-11-06T13:31:18.723Z,8.07
2022-11-06T13:33:50.177Z,7.00
2022-11-06T13:36:21.003Z,7.00
2022-11-06T13:38:55.102Z,8.43
2022-11-06T13:41:28.698Z,6.97
2022-11-06T13:44:02.053Z,6.70
2022-11-06T13:46:38.175Z,6.83
2022-11-06T13:49:16.071Z,7.30
2022-11-06T13:51:53.944Z,6.73
2022-11-06T13:54:37.487Z,6.83
2022-11-06T13:57:40.576Z,7.50
2022-11-06T14:00:20.091Z,7.50
2022-11-06T14:03:19.825Z,6.90
2022-11-06T14:05:56.913Z,7.30
2022-11-06T14:08:29.527Z,7.03
2022-11-06T14:11:01.761Z,6.93
2022-11-06T14:13:33.245Z,6.83
2022-11-06T14:16:05.184Z,6.60
2022-11-06T14:18:34.386Z,6.33
2022-11-06T14:21:29.207Z,6.50
2022-11-06T14:24:07.322Z,6.53
2022-11-06T14:26:40.902Z,5.43
2022-11-06T14:29:55.410Z,6.50
2022-11-06T14:32:43.741Z,6.57
2022-11-06T14:35:51.384Z,6.47
2022-11-06T14:38:39.729Z,13.10
2022-11-06T14:41:47.168Z,8.00
2022-11-06T14:44:25.776Z,8.07
2022-11-06T14:46:58.237Z,13.57
2022-11-06T14:49:34.528Z,14.60
2022-11-06T14:52:06.833Z,9.50
2022-11-06T14:54:38.037Z,32.90
2022-11-06T14:57:06.401Z,11.20
2022-11-06T14:59:38.431Z,11.30
2022-11-06T15:02:17.994Z,9.30
2022-11-06T15:04:50.800Z,9.70
2022-11-06T15:08:03.375Z,9.37
2022-11-06T15:11:04.676Z,10.70
2022-11-06T15:13:33.028Z,8.63
2022-11-06T15:16:12.404Z,8.67
2022-11-06T15:18:44.238Z,7.07
2022-11-06T15:21:20.143Z,15.33
2022-11-06T15:23:58.894Z,10.27
2022-11-06T15:26:29.713Z,7.40
2022-11-06T15:29:12.976Z,15.30
2022-11-06T15:31:45.744Z,17.40
2022-11-06T15:34:19.824Z,8.60
2022-11-06T15:36:53.356Z,13.20
2022-11-06T15:39:34.195Z,7.67
2022-11-06T15:42:02.428Z,7.57
2022-11-06T15:44:30.518Z,8.67
2022-11-06T15:47:00.764Z,6.70
2022-11-06T15:49:28.920Z,6.90
2022-11-06T15:51:58.491Z,8.93
2022-11-06T15:54:36.004Z,9.80
2022-11-06T15:57:07.482Z,8.50
2022-11-06T15:59:35.634Z,5.93
2022-11-06T16:02:15.727Z,5.37
2022-11-06T16:04:44.944Z,5.60
2022-11-06T16:07:13.901Z,7.77
2022-11-06T16:09:43.555Z,5.97
2022-11-06T16:12:14.401Z,7.53
2022-11-06T16:14:44.274Z,16.67
2022-11-06T16:17:19.785Z,9.73
2022-11-06T16:19:49.444Z,9.13
2022-11-06T16:22:19.418Z,8.33
2022-11-06T16:24:54.742Z,9.50
2022-11-06T16:27:25.019Z,10.80
2022-11-06T16:29:56.983Z,9.00
2022-11-06T16:32:29.579Z,13.17
2022-11-06T16:34:58.607Z,15.53
2022-11-06T16:37:41.649Z,17.23
2022-11-06T16:40:46.110Z,11.70
2022-11-06T16:43:16.353Z,14.70
2022-11-06T16:45:57.199Z,10.70
2022-11-06T16:48:34.607Z,8.50
2022-11-06T16:51:06.210Z,8.37
2022-11-06T16:53:49.655Z,11.23
2022-11-06T16:56:25.701Z,11.83
2022-11-06T16:59:01.833Z,14.60
2022-11-06T17:01:40.991Z,11.30
2022-11-06T17:04:21.035Z,12.43
2022-11-06T17:06:50.471Z,6.83
2022-11-06T17:09:33.643Z,6.83
2022-11-06T17:12:03.410Z,7.13
2022-11-06T17:14:33.041Z,10.43
2022-11-06T17:17:02.772Z,9.87
2022-11-06T17:19:32.335Z,5.77
2022-11-06T17:22:00.867Z,5.70
2022-11-06T17:24:36.666Z,18.73
2022-11-06T17:27:06.275Z,26.13
2022-11-06T17:29:36.438Z,5.50
2022-11-06T17:32:05.310Z,7.97
2022-11-06T17:34:34.880Z,5.90
2022-11-06T17:37:03.113Z,3.90
2022-11-06T17:39:32.767Z,2.90
2022-11-06T17:42:00.877Z,6.33
2022-11-06T17:44:29.102Z,19.00
2022-11-06T17:46:57.205Z,3.10
2022-11-06T17:49:25.361Z,4.60
2022-11-06T17:51:58.574Z,4.03
2022-11-06T17:54:28.618Z,2.93
2022-11-06T17:56:57.725Z,3.80
2022-11-06T17:59:26.288Z,2.50
2022-11-06T18:01:55.343Z,2.00
2022-11-06T18:04:25.166Z,3.60
2022-11-06T18:06:55.287Z,4.30
2022-11-06T18:09:24.488Z,3.87
2022-11-06T18:11:53.873Z,2.53
2022-11-06T18:14:24.606Z,3.30
2022-11-06T18:16:53.105Z,1.60
2022-11-06T18:19:25.201Z,1.77
2022-11-06T18:21:55.494Z,1.67
2022-11-06T18:24:23.769Z,2.60
2022-11-06T18:26:52.335Z,1.87
2022-11-06T18:29:20.614Z,1.53
2022-11-06T18:31:48.901Z,2.47
2022-11-06T18:34:21.185Z,2.00
2022-11-06T18:36:50.203Z,2.23
2022-11-06T18:39:20.385Z,1.70
2022-11-06T18:41:48.763Z,1.77
2022-11-06T18:44:18.207Z,1.67
2022-11-06T18:46:46.680Z,2.80
2022-11-06T18:49:15.126Z,15.33
2022-11-06T18:51:43.310Z,2.17
2022-11-06T18:54:13.253Z,13.57
2022-11-06T18:56:42.798Z,4.70
2022-11-06T18:59:15.607Z,2.90
2022-11-06T19:01:43.871Z,3.90
2022-11-06T19:04:12.320Z,2.43
2022-11-06T19:06:40.547Z,2.30
2022-11-06T19:09:08.842Z,2.10
2022-11-06T19:11:37.038Z,2.93
2022-11-06T19:14:07.278Z,8.87
2022-11-06T19:16:35.514Z,3.80
2022-11-06T19:19:05.701Z,3.90
2022-11-06T19:21:34.765Z,2.63
2022-11-06T19:24:05.212Z,2.00
2022-11-06T19:26:35.290Z,2.70
2022-11-06T19:29:03.541Z,1.87
2022-11-06T19:31:33.742Z,1.90
2022-11-06T19:34:03.122Z,3.50
2022-11-06T19:36:32.328Z,5.40
2022-11-06T19:39:00.575Z,1.60
2022-11-06T19:41:29.674Z,2.20
2022-11-06T19:43:58.156Z,1.33
2022-11-06T19:46:31.059Z,4.53
2022-11-06T19:49:05.496Z,2.80
2022-11-06T19:51:34.337Z,2.23
2022-11-06T19:54:02.780Z,1.57
2022-11-06T19:56:30.934Z,1.47
2022-11-06T19:59:00.082Z,1.50
2022-11-06T20:01:28.351Z,2.00
2022-11-06T20:03:56.626Z,2.00
2022-11-06T20:06:27.473Z,1.73
2022-11-06T20:08:55.758Z,1.30
2022-11-06T20:11:26.740Z,1.40
2022-11-06T20:13:54.959Z,2.17
2022-11-06T20:16:23.332Z,1.80
2022-11-06T20:18:53.055Z,1.30
2022-11-06T20:21:22.213Z,1.70
2022-11-06T20:23:51.878Z,2.00
2022-11-06T20:26:20.074Z,1.77
2022-11-06T20:28:48.657Z,2.50
2022-11-06T20:31:19.851Z,2.27
2022-11-06T20:33:48.528Z,1.97
2022-11-06T20:36:19.781Z,3.50
2022-11-06T20:38:48.193Z,1.47
2022-11-06T20:41:18.135Z,2.40
2022-11-06T20:43:46.658Z,1.53
2022-11-06T20:46:15.766Z,2.70
2022-11-06T20:48:46.022Z,8.20
2022-11-06T20:51:16.017Z,2.13
2022-11-06T20:53:44.426Z,1.90
2022-11-06T20:56:14.868Z,1.67
2022-11-06T20:58:44.910Z,2.00
2022-11-06T21:01:14.604Z,1.80
2022-11-06T21:03:42.831Z,1.43
2022-11-06T21:06:12.025Z,1.67
2022-11-06T21:08:41.048Z,1.47
2022-11-06T21:11:11.630Z,1.40
2022-11-06T21:13:41.463Z,1.73
2022-11-06T21:16:14.233Z,1.50
2022-11-06T21:18:43.436Z,1.40
2022-11-06T21:21:14.657Z,1.50
2022-11-06T21:23:42.921Z,1.70
2022-11-06T21:26:12.501Z,1.30
2022-11-06T21:28:42.111Z,1.60
2022-11-06T21:31:12.423Z,2.00
2022-11-06T21:33:41.646Z,2.10
2022-11-06T21:36:11.732Z,1.40
2022-11-06T21:38:39.924Z,1.33
2022-11-06T21:41:08.879Z,1.60
2022-11-06T21:43:37.323Z,1.47
2022-11-06T21:46:06.892Z,1.50
2022-11-06T21:48:52.450Z,1.37
2022-11-06T21:51:23.524Z,1.60
2022-11-06T21:54:09.814Z,1.77
2022-11-06T21:56:39.570Z,1.60
2022-11-06T21:59:09.177Z,1.80
2022-11-06T22:01:38.262Z,1.53
2022-11-06T22:04:08.604Z,1.57
2022-11-06T22:06:36.957Z,3.97
2022-11-06T22:09:05.476Z,1.73
2022-11-06T22:11:34.804Z,1.40
2022-11-06T22:14:05.319Z,1.40
2022-11-06T22:16:35.803Z,1.70
2022-11-06T22:19:06.709Z,1.53
2022-11-06T22:21:37.489Z,1.63
2022-11-06T22:24:06.614Z,1.50
2022-11-06T22:26:36.244Z,1.73
2022-11-06T22:29:08.375Z,1.43
2022-11-06T22:31:36.818Z,1.50
2022-11-06T22:34:05.667Z,1.57
2022-11-06T22:36:37.186Z,1.90
2022-11-06T22:39:06.710Z,1.50
2022-11-06T22:41:34.893Z,1.73
2022-11-06T22:44:03.687Z,1.47
2022-11-06T22:46:32.100Z,1.63
2022-11-06T22:49:00.533Z,1.30
2022-11-06T22:51:30.648Z,1.47
2022-11-06T22:54:01.177Z,1.30
2022-11-06T22:56:30.872Z,1.70
2022-11-06T22:59:01.115Z,1.90
2022-11-06T23:01:32.508Z,1.50
2022-11-06T23:04:06.304Z,1.80
2022-11-06T23:06:34.978Z,1.63
2022-11-06T23:09:04.642Z,1.43
2022-11-06T23:11:32.936Z,1.50
2022-11-06T23:14:07.418Z,1.63
2022-11-06T23:16:50.842Z,1.30
2022-11-06T23:19:20.593Z,1.40
2022-11-06T23:21:48.869Z,1.77
2022-11-06T23:24:18.365Z,1.40
2022-11-06T23:26:47.369Z,1.83
2022-11-06T23:29:15.599Z,1.70
2022-11-06T23:31:43.819Z,1.40
2022-11-06T23:34:11.998Z,1.60
2022-11-06T23:36:40.289Z,1.50
2022-11-06T23:39:08.457Z,1.57
2022-11-06T23:41:45.748Z,1.80
2022-11-06T23:44:32.279Z,2.00
2022-11-06T23:47:00.806Z,2.10
2022-11-06T23:49:28.950Z,3.17
2022-11-06T23:51:57.116Z,5.63
2022-11-06T23:54:25.751Z,5.53
2022-11-06T23:56:55.235Z,1.87
2022-11-06T23:59:23.523Z,2.10
